createdAt,value
2023-03-19T00:01:50.155Z,21.45
2023-03-19T00:04:17.355Z,22.13
2023-03-19T00:06:44.275Z,21.35
2023-03-19T00:09:11.377Z,21.65
2023-03-19T00:11:38.359Z,21.93
2023-03-19T00:14:06.094Z,21.15
2023-03-19T00:16:32.974Z,20.40
2023-03-19T00:18:59.773Z,21.08
2023-03-19T00:21:27.363Z,20.13
2023-03-19T00:23:54.675Z,20.60
2023-03-19T00:26:21.574Z,19.85
2023-03-19T00:28:48.342Z,20.45
2023-03-19T00:31:16.684Z,20.80
2023-03-19T00:33:43.573Z,19.73
2023-03-19T00:36:11.053Z,20.97
2023-03-19T00:38:37.979Z,19.63
2023-03-19T00:41:05.916Z,20.13
2023-03-19T00:43:32.712Z,19.45
2023-03-19T00:45:59.738Z,20.42
2023-03-19T00:48:27.262Z,20.07
2023-03-19T00:50:54.217Z,20.10
2023-03-19T00:53:21.587Z,19.67
2023-03-19T00:55:48.400Z,21.48
2023-03-19T00:58:15.191Z,19.90
2023-03-19T01:00:42.133Z,20.00
2023-03-19T01:03:08.931Z,20.15
2023-03-19T01:08:03.207Z,19.27
2023-03-19T01:10:30.025Z,20.17
2023-03-19T01:12:57.055Z,18.73
2023-03-19T01:15:23.870Z,18.67
2023-03-19T01:17:50.825Z,19.38
2023-03-19T01:20:19.108Z,19.02
2023-03-19T01:22:46.181Z,18.85
2023-03-19T01:25:13.598Z,19.13
2023-03-19T01:27:40.529Z,18.77
2023-03-19T01:30:07.889Z,18.40
2023-03-19T01:32:34.731Z,18.08
2023-03-19T01:35:01.897Z,19.17
2023-03-19T01:37:29.343Z,17.53
2023-03-19T01:39:56.149Z,18.98
2023-03-19T01:42:22.933Z,17.98
2023-03-19T01:44:49.907Z,17.90
2023-03-19T01:47:29.028Z,18.13
2023-03-19T01:49:56.670Z,18.60
2023-03-19T01:52:24.485Z,20.42
2023-03-19T01:54:51.725Z,18.42
2023-03-19T01:57:18.488Z,18.13
2023-03-19T01:59:47.850Z,18.85
2023-03-19T02:02:28.170Z,18.90
2023-03-19T02:05:04.647Z,19.65
2023-03-19T02:07:32.167Z,18.40
2023-03-19T02:09:59.903Z,19.02
2023-03-19T02:12:26.741Z,19.95
2023-03-19T02:14:53.645Z,17.87
2023-03-19T02:17:21.725Z,18.73
2023-03-19T02:20:08.843Z,18.50
2023-03-19T02:22:35.653Z,18.92
2023-03-19T02:25:05.640Z,18.48
2023-03-19T02:27:32.466Z,18.43
2023-03-19T02:29:59.242Z,18.38
2023-03-19T02:32:27.081Z,18.23
2023-03-19T02:34:53.871Z,19.42
2023-03-19T02:37:23.182Z,19.60
2023-03-19T02:39:58.412Z,18.50
2023-03-19T02:42:26.342Z,18.38
2023-03-19T02:44:53.120Z,18.90
2023-03-19T02:47:19.961Z,19.35
2023-03-19T02:49:46.787Z,20.13
2023-03-19T02:52:13.700Z,17.90
2023-03-19T02:54:40.844Z,18.80
2023-03-19T02:57:07.682Z,17.95
2023-03-19T02:59:34.614Z,18.77
2023-03-19T03:02:01.534Z,18.20
2023-03-19T03:04:29.282Z,18.83
2023-03-19T03:06:56.093Z,17.92
2023-03-19T03:09:23.592Z,18.95
2023-03-19T03:11:50.426Z,19.13
2023-03-19T03:14:17.467Z,18.55
2023-03-19T03:16:44.582Z,18.97
2023-03-19T03:19:11.626Z,18.88
2023-03-19T03:21:38.475Z,19.02
2023-03-19T03:24:05.536Z,18.92
2023-03-19T03:26:32.550Z,19.13
2023-03-19T03:28:59.402Z,18.17
2023-03-19T03:31:27.295Z,18.63
2023-03-19T03:33:54.350Z,19.30
2023-03-19T03:36:21.551Z,18.58
2023-03-19T03:38:48.374Z,18.05
2023-03-19T03:41:15.531Z,18.60
2023-03-19T03:43:42.351Z,17.20
2023-03-19T03:46:09.199Z,18.33
2023-03-19T03:48:36.049Z,18.05
2023-03-19T03:51:03.386Z,18.42
2023-03-19T03:53:30.241Z,18.47
2023-03-19T03:55:57.194Z,18.33
2023-03-19T03:58:24.209Z,18.92
2023-03-19T04:00:51.655Z,17.60
2023-03-19T04:03:19.480Z,17.85
2023-03-19T04:05:46.433Z,18.13
2023-03-19T04:08:13.907Z,18.67
2023-03-19T04:10:42.467Z,19.17
2023-03-19T04:13:10.034Z,18.08
2023-03-19T04:15:36.912Z,18.20
2023-03-19T04:18:04.096Z,18.73
2023-03-19T04:20:31.388Z,18.73
2023-03-19T04:22:58.338Z,18.65
2023-03-19T04:25:25.166Z,18.65
2023-03-19T04:27:52.752Z,18.33
2023-03-19T04:30:20.160Z,19.63
2023-03-19T04:32:47.732Z,18.55
2023-03-19T04:35:14.629Z,18.35
2023-03-19T04:37:43.528Z,18.98
2023-03-19T04:40:11.111Z,19.20
2023-03-19T04:42:37.914Z,18.60
2023-03-19T04:45:05.051Z,19.50
2023-03-19T04:47:32.027Z,19.52
2023-03-19T04:49:58.841Z,19.52
2023-03-19T04:52:26.192Z,19.30
2023-03-19T04:54:52.961Z,18.63
2023-03-19T04:57:19.767Z,19.60
2023-03-19T04:59:46.710Z,20.15
2023-03-19T05:02:13.647Z,19.85
2023-03-19T05:04:40.608Z,20.10
2023-03-19T05:07:08.046Z,20.40
2023-03-19T05:09:34.951Z,20.65
2023-03-19T05:12:01.720Z,20.15
2023-03-19T05:14:28.636Z,19.38
2023-03-19T05:16:55.441Z,18.55
2023-03-19T05:19:22.537Z,19.47
2023-03-19T05:21:49.354Z,20.15
2023-03-19T05:24:16.170Z,19.48
2023-03-19T05:26:43.750Z,20.65
2023-03-19T05:29:11.390Z,19.02
2023-03-19T05:31:38.453Z,19.87
2023-03-19T05:34:05.249Z,20.58
2023-03-19T05:36:32.127Z,19.38
2023-03-19T05:38:58.892Z,20.15
2023-03-19T05:41:25.748Z,20.48
2023-03-19T05:43:52.548Z,20.27
2023-03-19T05:46:19.422Z,19.48
2023-03-19T05:48:46.307Z,19.27
2023-03-19T05:51:13.107Z,18.58
2023-03-19T05:53:39.965Z,18.92
2023-03-19T05:56:07.025Z,18.60
2023-03-19T05:58:33.940Z,18.67
2023-03-19T06:01:00.770Z,19.55
2023-03-19T06:03:27.731Z,18.95
2023-03-19T06:05:54.610Z,19.27
2023-03-19T06:08:21.699Z,19.30
2023-03-19T06:10:48.508Z,19.58
2023-03-19T06:13:15.285Z,20.20
2023-03-19T06:15:42.125Z,19.48
2023-03-19T06:18:08.911Z,19.40
2023-03-19T06:20:36.259Z,18.57
2023-03-19T06:23:03.268Z,19.15
2023-03-19T06:25:30.069Z,19.35
2023-03-19T06:27:56.829Z,18.50
2023-03-19T06:30:23.634Z,18.92
2023-03-19T06:32:50.575Z,18.53
2023-03-19T06:35:17.555Z,19.15
2023-03-19T06:37:44.347Z,19.45
2023-03-19T06:40:11.529Z,20.20
2023-03-19T06:42:38.445Z,18.45
2023-03-19T06:45:06.573Z,18.03
2023-03-19T06:47:33.440Z,18.95
2023-03-19T06:50:01.072Z,18.77
2023-03-19T06:52:27.890Z,18.45
2023-03-19T06:54:54.710Z,20.65
2023-03-19T06:57:21.471Z,19.00
2023-03-19T06:59:48.250Z,19.25
2023-03-19T07:02:15.398Z,19.55
2023-03-19T07:04:42.210Z,20.00
2023-03-19T07:07:09.038Z,19.20
2023-03-19T07:09:36.111Z,19.47
2023-03-19T07:12:03.092Z,19.15
2023-03-19T07:14:29.871Z,19.67
2023-03-19T07:16:56.969Z,19.60
2023-03-19T07:19:23.794Z,18.58
2023-03-19T07:21:50.729Z,19.10
2023-03-19T07:24:17.515Z,18.65
2023-03-19T07:26:44.375Z,18.98
2023-03-19T07:29:11.334Z,18.73
2023-03-19T07:31:38.188Z,18.83
2023-03-19T07:34:05.166Z,19.47
2023-03-19T07:36:32.240Z,18.48
2023-03-19T07:38:59.048Z,19.10
2023-03-19T07:41:25.929Z,19.45
2023-03-19T07:43:53.408Z,19.60
2023-03-19T07:46:20.285Z,19.00
2023-03-19T07:48:47.135Z,19.50
2023-03-19T07:51:14.227Z,19.40
2023-03-19T07:53:41.140Z,20.15
2023-03-19T07:56:08.076Z,19.13
2023-03-19T07:58:34.847Z,18.80
2023-03-19T08:01:01.670Z,19.60
2023-03-19T08:03:29.309Z,20.35
2023-03-19T08:05:56.132Z,19.15
2023-03-19T08:08:23.127Z,19.08
2023-03-19T08:10:51.020Z,20.00
2023-03-19T08:13:17.887Z,19.33
2023-03-19T08:15:44.680Z,18.40
2023-03-19T08:18:11.514Z,20.13
2023-03-19T08:20:38.255Z,18.83
2023-03-19T08:23:05.056Z,19.27
2023-03-19T08:25:32.734Z,18.05
2023-03-19T08:28:01.119Z,19.13
2023-03-19T08:30:28.063Z,19.40
2023-03-19T08:32:54.991Z,17.83
2023-03-19T08:35:21.849Z,17.00
2023-03-19T08:37:48.631Z,17.00
2023-03-19T08:40:16.412Z,16.33
2023-03-19T08:42:45.283Z,16.55
2023-03-19T08:45:13.204Z,18.02
2023-03-19T08:47:40.492Z,16.30
2023-03-19T08:50:07.970Z,15.18
2023-03-19T08:52:34.800Z,15.77
2023-03-19T08:55:01.692Z,15.73
2023-03-19T08:57:28.473Z,15.27
2023-03-19T08:59:55.250Z,14.73
2023-03-19T09:02:22.079Z,15.30
2023-03-19T09:04:48.955Z,14.57
2023-03-19T09:07:16.508Z,14.57
2023-03-19T09:09:43.733Z,15.32
2023-03-19T09:12:12.062Z,15.20
2023-03-19T09:14:39.900Z,13.77
2023-03-19T09:17:06.951Z,15.65
2023-03-19T09:19:33.792Z,15.60
2023-03-19T09:22:00.550Z,15.80
2023-03-19T09:24:27.390Z,16.10
2023-03-19T09:26:54.231Z,15.02
2023-03-19T09:29:21.373Z,14.68
2023-03-19T09:31:48.251Z,15.30
2023-03-19T09:34:15.071Z,15.32
2023-03-19T09:36:41.915Z,14.80
2023-03-19T09:39:08.992Z,14.70
2023-03-19T09:42:03.959Z,13.73
2023-03-19T09:44:32.933Z,12.85
2023-03-19T09:47:26.241Z,13.80
2023-03-19T09:49:58.381Z,12.80
2023-03-19T09:52:31.760Z,13.23
2023-03-19T09:55:01.514Z,12.30
2023-03-19T09:57:29.992Z,12.52
2023-03-19T09:59:56.889Z,12.73
2023-03-19T10:02:42.372Z,11.50
2023-03-19T10:05:34.176Z,10.82
2023-03-19T10:08:19.865Z,10.57
2023-03-19T10:10:50.783Z,10.43
2023-03-19T10:13:34.747Z,10.38
2023-03-19T10:16:01.770Z,11.23
2023-03-19T10:18:30.111Z,10.57
2023-03-19T10:21:16.670Z,9.50
2023-03-19T10:24:16.659Z,11.05
2023-03-19T10:26:43.576Z,10.05
2023-03-19T10:29:23.774Z,10.67
2023-03-19T10:32:16.880Z,10.05
2023-03-19T10:34:45.035Z,11.05
2023-03-19T10:37:20.599Z,9.63
2023-03-19T10:39:48.676Z,9.50
2023-03-19T10:42:33.381Z,9.57
2023-03-19T10:45:07.739Z,8.80
2023-03-19T10:47:39.228Z,8.48
2023-03-19T10:50:07.043Z,8.05
2023-03-19T10:52:35.550Z,8.43
2023-03-19T10:55:19.515Z,7.90
2023-03-19T10:57:49.072Z,8.63
2023-03-19T11:00:18.030Z,7.72
2023-03-19T11:02:49.240Z,8.02
2023-03-19T11:05:22.022Z,8.00
2023-03-19T11:08:01.913Z,7.47
2023-03-19T11:10:30.714Z,8.07
2023-03-19T11:13:18.190Z,8.07
2023-03-19T11:15:46.796Z,7.97
2023-03-19T11:18:20.592Z,7.90
2023-03-19T11:21:07.150Z,8.17
2023-03-19T11:23:41.315Z,7.80
2023-03-19T11:26:10.096Z,8.15
2023-03-19T11:28:37.586Z,8.05
2023-03-19T11:31:37.527Z,7.40
2023-03-19T11:34:13.369Z,8.07
2023-03-19T11:36:40.107Z,7.35
2023-03-19T11:39:41.154Z,7.82
2023-03-19T11:42:29.553Z,7.47
2023-03-19T11:45:00.752Z,8.45
2023-03-19T11:47:46.052Z,7.70
2023-03-19T11:50:24.734Z,8.05
2023-03-19T11:53:13.333Z,7.85
2023-03-19T11:55:42.772Z,7.60
2023-03-19T11:58:44.891Z,7.85
2023-03-19T12:01:32.818Z,7.60
2023-03-19T12:04:16.687Z,7.68
2023-03-19T12:06:49.557Z,6.97
2023-03-19T12:09:53.553Z,6.95
2023-03-19T12:12:26.579Z,6.68
2023-03-19T12:15:15.255Z,7.17
2023-03-19T12:18:03.787Z,6.80
2023-03-19T12:20:35.654Z,7.82
2023-03-19T12:23:39.567Z,6.80
2023-03-19T12:26:08.944Z,7.45
2023-03-19T12:29:07.987Z,6.43
2023-03-19T12:31:42.442Z,7.47
2023-03-19T12:34:30.040Z,7.72
2023-03-19T12:37:13.542Z,7.35
2023-03-19T12:39:43.447Z,6.65
2023-03-19T12:42:13.487Z,6.87
2023-03-19T12:44:42.405Z,6.40
2023-03-19T12:47:22.497Z,7.22
2023-03-19T12:49:54.934Z,6.53
2023-03-19T12:52:42.328Z,7.45
2023-03-19T12:55:23.207Z,7.97
2023-03-19T12:58:08.806Z,7.88
2023-03-19T13:00:45.151Z,6.97
2023-03-19T13:03:22.576Z,7.78
2023-03-19T13:06:13.033Z,7.22
2023-03-19T13:08:45.059Z,7.20
2023-03-19T13:11:16.180Z,6.55
2023-03-19T13:13:48.741Z,6.55
2023-03-19T13:16:30.892Z,6.10
2023-03-19T13:19:35.829Z,6.55
2023-03-19T13:22:09.511Z,6.80
2023-03-19T13:24:38.658Z,6.13
2023-03-19T13:27:07.461Z,6.53
2023-03-19T13:29:36.905Z,6.57
2023-03-19T13:32:27.487Z,6.78
2023-03-19T13:35:28.899Z,7.20
2023-03-19T13:38:00.493Z,7.38
2023-03-19T13:40:41.525Z,7.43
2023-03-19T13:43:28.425Z,8.75
2023-03-19T13:46:17.245Z,9.18
2023-03-19T13:48:47.050Z,8.93
2023-03-19T13:51:19.554Z,9.00
2023-03-19T13:54:20.108Z,8.73
2023-03-19T13:57:01.062Z,7.55
2023-03-19T13:59:29.766Z,8.15
2023-03-19T14:01:57.174Z,8.20
2023-03-19T14:04:37.368Z,8.07
2023-03-19T14:07:18.005Z,8.55
2023-03-19T14:09:49.537Z,8.95
2023-03-19T14:12:16.415Z,9.38
2023-03-19T14:14:46.035Z,8.97
2023-03-19T14:17:35.395Z,8.73
2023-03-19T14:20:37.047Z,8.50
2023-03-19T14:23:11.386Z,9.27
2023-03-19T14:26:01.557Z,9.45
2023-03-19T14:28:50.758Z,10.10
2023-03-19T14:31:22.359Z,8.88
2023-03-19T14:33:55.935Z,9.52
2023-03-19T14:36:22.963Z,9.60
2023-03-19T14:39:27.698Z,9.98
2023-03-19T14:42:17.517Z,10.80
2023-03-19T14:45:00.771Z,10.88
2023-03-19T14:47:49.245Z,11.60
2023-03-19T14:50:41.567Z,11.50
2023-03-19T14:53:18.615Z,10.80
2023-03-19T14:55:51.682Z,10.97
2023-03-19T14:58:21.737Z,10.40
2023-03-19T15:00:53.231Z,11.07
2023-03-19T15:03:29.898Z,11.90
2023-03-19T15:05:57.892Z,12.15
2023-03-19T15:08:25.917Z,13.10
2023-03-19T15:11:18.446Z,13.52
2023-03-19T15:14:06.610Z,13.90
2023-03-19T15:16:51.132Z,16.75
2023-03-19T15:19:22.640Z,25.23
2023-03-19T15:21:50.466Z,27.30
2023-03-19T15:24:17.386Z,27.80
2023-03-19T15:26:45.549Z,30.05
2023-03-19T15:29:13.789Z,28.38
2023-03-19T15:31:50.928Z,27.67
2023-03-19T15:34:22.796Z,27.73
2023-03-19T15:36:58.267Z,25.83
2023-03-19T15:39:26.088Z,26.63
2023-03-19T15:41:52.934Z,25.30
2023-03-19T15:44:30.628Z,25.88
2023-03-19T15:46:57.418Z,25.50
2023-03-19T15:49:30.018Z,24.58
2023-03-19T15:51:59.688Z,23.45
2023-03-19T15:54:27.185Z,23.35
2023-03-19T15:56:54.009Z,24.17
2023-03-19T15:59:22.123Z,22.97
2023-03-19T16:01:50.087Z,22.95
2023-03-19T16:04:29.642Z,23.52
2023-03-19T16:06:57.548Z,23.25
2023-03-19T16:09:27.337Z,24.48
2023-03-19T16:11:54.810Z,22.90
2023-03-19T16:14:41.159Z,24.00
2023-03-19T16:17:15.608Z,23.90
2023-03-19T16:19:58.232Z,23.83
2023-03-19T16:22:28.703Z,23.77
2023-03-19T16:24:56.071Z,25.00
2023-03-19T16:27:32.258Z,25.20
2023-03-19T16:29:59.797Z,24.63
2023-03-19T16:32:27.817Z,25.30
2023-03-19T16:35:14.321Z,24.50
2023-03-19T16:37:44.902Z,25.03
2023-03-19T16:40:15.724Z,25.67
2023-03-19T16:42:46.133Z,24.38
2023-03-19T16:45:18.898Z,24.45
2023-03-19T16:47:47.361Z,25.55
2023-03-19T16:50:15.277Z,23.63
2023-03-19T16:52:42.739Z,24.88
2023-03-19T16:55:35.127Z,25.05
2023-03-19T16:58:28.086Z,24.63
2023-03-19T17:00:54.858Z,25.85
2023-03-19T17:03:21.925Z,25.77
2023-03-19T17:05:48.995Z,25.58
2023-03-19T17:08:16.130Z,24.83
2023-03-19T17:10:45.500Z,25.73
2023-03-19T17:13:19.244Z,24.38
2023-03-19T17:15:46.297Z,25.43
2023-03-19T17:18:17.377Z,25.67
2023-03-19T17:21:08.168Z,24.58
2023-03-19T17:23:35.320Z,26.52
2023-03-19T17:26:03.187Z,25.42
2023-03-19T17:28:32.481Z,26.77
2023-03-19T17:30:59.386Z,26.38
2023-03-19T17:33:27.627Z,25.90
2023-03-19T17:35:54.899Z,26.35
2023-03-19T17:38:22.086Z,27.58
2023-03-19T17:40:49.021Z,26.93
2023-03-19T17:43:15.824Z,28.10
2023-03-19T17:45:46.217Z,26.85
2023-03-19T17:48:31.281Z,27.65
2023-03-19T17:51:02.097Z,27.58
2023-03-19T17:53:28.997Z,27.77
2023-03-19T17:55:55.868Z,28.48
2023-03-19T17:58:23.030Z,28.77
2023-03-19T18:00:50.205Z,28.67
2023-03-19T18:03:18.844Z,27.48
2023-03-19T18:05:45.812Z,28.53
2023-03-19T18:08:17.064Z,27.90
2023-03-19T18:10:43.972Z,27.98
2023-03-19T18:13:11.363Z,26.92
2023-03-19T18:15:38.926Z,28.42
2023-03-19T18:18:06.471Z,28.50
2023-03-19T18:20:38.006Z,29.48
2023-03-19T18:23:05.463Z,29.70
2023-03-19T18:25:35.273Z,30.30
2023-03-19T18:28:05.327Z,29.65
2023-03-19T18:30:33.533Z,30.43
2023-03-19T18:33:02.077Z,29.50
2023-03-19T18:35:33.868Z,29.30
2023-03-19T18:38:00.844Z,30.02
2023-03-19T18:40:31.525Z,29.55
2023-03-19T18:42:58.379Z,31.17
2023-03-19T18:45:27.966Z,31.50
2023-03-19T18:47:55.108Z,31.40
2023-03-19T18:50:23.850Z,31.83
2023-03-19T18:52:51.696Z,32.65
2023-03-19T18:55:18.795Z,32.13
2023-03-19T18:57:54.114Z,32.65
2023-03-19T19:00:23.826Z,33.08
2023-03-19T19:02:50.728Z,32.85
2023-03-19T19:05:27.650Z,32.95
2023-03-19T19:07:56.088Z,32.30
2023-03-19T19:10:23.943Z,33.88
2023-03-19T19:12:52.530Z,34.47
2023-03-19T19:15:23.810Z,33.35
2023-03-19T19:17:50.816Z,33.47
2023-03-19T19:20:19.187Z,33.90
2023-03-19T19:22:46.122Z,35.50
2023-03-19T19:25:17.840Z,34.78
2023-03-19T19:27:44.785Z,34.08
2023-03-19T19:30:18.910Z,35.33
2023-03-19T19:32:46.218Z,34.27
2023-03-19T19:35:23.485Z,35.80
2023-03-19T19:37:50.544Z,34.92
2023-03-19T19:40:21.011Z,35.17
2023-03-19T19:42:50.273Z,35.95
2023-03-19T19:45:28.185Z,33.97
2023-03-19T19:47:55.095Z,35.40
2023-03-19T19:50:23.423Z,34.30
2023-03-19T19:52:50.185Z,35.97
2023-03-19T19:55:17.154Z,35.83
2023-03-19T19:57:43.996Z,36.53
2023-03-19T20:00:30.212Z,35.83
2023-03-19T20:02:57.963Z,36.53
2023-03-19T20:05:29.096Z,36.92
2023-03-19T20:07:58.424Z,35.25
2023-03-19T20:10:26.207Z,35.67
2023-03-19T20:12:54.601Z,36.03
2023-03-19T20:15:24.073Z,37.17
2023-03-19T20:17:51.982Z,36.63
2023-03-19T20:20:20.049Z,36.50
2023-03-19T20:22:47.085Z,37.30
2023-03-19T20:25:14.211Z,37.85
2023-03-19T20:27:41.183Z,38.85
2023-03-19T20:30:12.909Z,37.83
2023-03-19T20:32:39.858Z,38.65
2023-03-19T20:35:26.753Z,38.33
2023-03-19T20:37:54.299Z,38.65
2023-03-19T20:40:22.351Z,37.38
2023-03-19T20:42:50.510Z,38.53
2023-03-19T20:45:36.948Z,37.97
2023-03-19T20:48:04.144Z,38.27
2023-03-19T20:50:32.923Z,39.30
2023-03-19T20:53:03.921Z,39.38
2023-03-19T20:55:32.957Z,39.65
2023-03-19T20:58:00.176Z,38.75
2023-03-19T21:00:31.368Z,39.63
2023-03-19T21:02:59.136Z,39.50
2023-03-19T21:05:37.199Z,38.88
2023-03-19T21:08:05.707Z,39.75
2023-03-19T21:10:43.159Z,37.97
2023-03-19T21:13:13.648Z,37.47
2023-03-19T21:15:40.820Z,37.63
2023-03-19T21:18:08.534Z,40.17
2023-03-19T21:20:35.841Z,39.80
2023-03-19T21:23:21.346Z,39.55
2023-03-19T21:25:48.280Z,39.93
2023-03-19T21:28:30.641Z,38.15
2023-03-19T21:30:58.449Z,38.67
2023-03-19T21:33:29.707Z,40.10
2023-03-19T21:35:56.683Z,41.50
2023-03-19T21:38:23.697Z,41.73
2023-03-19T21:41:11.847Z,41.50
2023-03-19T21:43:43.671Z,42.10
2023-03-19T21:46:24.085Z,43.38
2023-03-19T21:48:52.374Z,42.38
2023-03-19T21:51:19.199Z,43.30
2023-03-19T21:53:46.033Z,43.03
2023-03-19T21:56:22.803Z,43.33
2023-03-19T21:58:51.419Z,43.67
2023-03-19T22:01:20.750Z,44.00
2023-03-19T22:03:47.680Z,44.90
2023-03-19T22:06:14.540Z,46.60
2023-03-19T22:08:41.825Z,46.10
2023-03-19T22:11:24.291Z,44.80
2023-03-19T22:13:51.091Z,44.15
2023-03-19T22:16:23.207Z,46.40
2023-03-19T22:18:50.187Z,47.53
2023-03-19T22:21:18.368Z,46.95
2023-03-19T22:23:46.374Z,46.25
2023-03-19T22:26:22.027Z,46.72
2023-03-19T22:28:48.828Z,47.13
2023-03-19T22:31:15.671Z,45.25
2023-03-19T22:33:42.533Z,46.53
2023-03-19T22:36:15.532Z,46.38
2023-03-19T22:38:44.610Z,45.63
2023-03-19T22:41:34.242Z,46.53
2023-03-19T22:44:01.705Z,47.65
2023-03-19T22:46:28.550Z,48.42
2023-03-19T22:48:55.803Z,47.35
2023-03-19T22:51:24.216Z,48.20
2023-03-19T22:53:51.154Z,48.50
2023-03-19T22:56:18.316Z,49.22
2023-03-19T22:58:46.664Z,46.95
2023-03-19T23:01:32.737Z,46.85
2023-03-19T23:04:11.509Z,48.30
2023-03-19T23:06:38.292Z,47.90
2023-03-19T23:09:05.088Z,47.22
2023-03-19T23:11:31.897Z,47.88
2023-03-19T23:13:59.725Z,48.30
2023-03-19T23:16:26.593Z,48.65
2023-03-19T23:21:20.916Z,48.17
2023-03-19T23:23:47.693Z,49.80
2023-03-19T23:26:30.452Z,49.17
2023-03-19T23:28:59.269Z,50.50
2023-03-19T23:31:26.030Z,51.03
2023-03-19T23:33:52.843Z,51.60
2023-03-19T23:36:19.663Z,48.75
2023-03-19T23:38:46.820Z,50.60
2023-03-19T23:41:26.458Z,51.72
2023-03-19T23:43:53.445Z,51.03
2023-03-19T23:46:20.814Z,49.50
2023-03-19T23:48:47.703Z,50.10
2023-03-19T23:51:15.101Z,48.72
2023-03-19T23:53:42.151Z,52.33
2023-03-19T23:56:25.898Z,52.93
2023-03-19T23:58:53.552Z,51.10
